Time;durP1;ratioP1;P1;durP2;ratioP2;P2;SDS_P1;SDS_P2;PMS_P1;PMS_P2;Temp;Humidity;BMP_temperature;BMP_pressure;BME280_temperature;BME280_humidity;BME280_pressure;Samples;Min_cycle;Max_cycle;Signal;HPM_P1;HPM_P2
2023/08/04 03:00:55;;;;;;;;;;;15.50;99.90;;;;;;5828992;23;19930;-78
2023/08/04 03:03:21;;;;;;;;;;;15.50;99.90;;;;;;4977223;28;19984;-77
2023/08/04 03:05:47;;;;;;;;;;;15.40;99.90;;;;;;4978121;28;19965;-79
2023/08/04 03:08:12;;;;;;;;;;;15.40;99.90;;;;;;4978292;28;19928;-77
2023/08/04 03:10:39;;;;;;;;;;;15.40;99.90;;;;;;4999108;28;19922;-77
2023/08/04 03:13:04;;;;;;;;;;;15.40;99.90;;;;;;5015280;28;20369;-76
2023/08/04 03:15:30;;;;;;;;;;;15.30;99.90;;;;;;4997450;28;19925;-78
2023/08/04 03:17:55;;;;;;;;;;;15.30;99.90;;;;;;4997234;28;19933;-78
2023/08/04 03:20:21;;;;;;;;;;;15.30;99.90;;;;;;5014823;28;19925;-78
2023/08/04 03:22:46;;;;;;;;;;;15.30;99.90;;;;;;5015033;28;19928;-78
2023/08/04 03:25:12;;;;;;;;;;;15.30;99.90;;;;;;4997302;28;20316;-78
2023/08/04 03:27:37;;;;;;;;;;;15.30;99.90;;;;;;4993332;28;19934;-77
2023/08/04 03:30:03;;;;;;;;;;;15.30;99.90;;;;;;4978424;28;20223;-77
2023/08/04 03:32:28;;;;;;;;;;;15.30;99.90;;;;;;4994856;28;19921;-77
2023/08/04 03:34:54;;;;;;;;;;;15.30;99.90;;;;;;4994916;28;20016;-78
2023/08/04 03:37:19;;;;;;;;;;;15.30;99.90;;;;;;4994062;28;19922;-78
2023/08/04 03:39:45;;;;;;;;;;;15.30;99.90;;;;;;4977993;28;20026;-77
2023/08/04 03:42:10;;;;;;;;;;;15.40;99.90;;;;;;4993635;28;19977;-79
2023/08/04 03:44:36;;;;;;;;;;;15.30;99.90;;;;;;4994756;28;19925;-78
2023/08/04 03:47:02;;;;;;;;;;;15.30;99.90;;;;;;4994182;28;19922;-77
2023/08/04 03:49:27;;;;;;;;;;;15.30;99.90;;;;;;4994322;28;19922;-79
2023/08/04 03:51:53;;;;;;;;;;;15.30;99.90;;;;;;4993929;28;20024;-76
2023/08/04 03:54:18;;;;;;;;;;;15.30;99.90;;;;;;4994801;28;20012;-77
2023/08/04 03:56:44;;;;;;;;;;;15.30;99.90;;;;;;4993526;28;19922;-77
2023/08/04 03:59:11;;;;;;;;;;;15.40;99.90;;;;;;4995246;28;19921;-78
2023/08/04 04:01:37;;;;;;;;;;;15.30;99.90;;;;;;4993539;28;19921;-77
2023/08/04 04:04:03;;;;;;;;;;;15.30;99.90;;;;;;4993701;28;19932;-77
2023/08/04 04:06:29;;;;;;;;;;;15.30;99.90;;;;;;4993315;28;20403;-78
2023/08/04 04:08:54;;;;;;;;;;;15.30;99.90;;;;;;4994733;28;20423;-77
2023/08/04 04:11:20;;;;;;;;;;;15.20;99.90;;;;;;4993876;28;19969;-77
2023/08/04 04:13:45;;;;;;;;;;;15.30;99.90;;;;;;4993561;28;20411;-75
2023/08/04 04:16:11;;;;;;;;;;;15.30;99.90;;;;;;4993576;28;19922;-77
2023/08/04 04:18:36;;;;;;;;;;;15.30;99.90;;;;;;4994969;28;19922;-77
2023/08/04 04:21:02;;;;;;;;;;;15.30;99.90;;;;;;4994821;28;19929;-79
2023/08/04 04:23:28;;;;;;;;;;;15.30;99.90;;;;;;4994733;28;19929;-78
2023/08/04 04:25:53;;;;;;;;;;;15.30;99.90;;;;;;4977249;28;19928;-79
2023/08/04 04:28:19;;;;;;;;;;;15.30;99.90;;;;;;4993232;28;19922;-79
2023/08/04 04:30:45;;;;;;;;;;;15.40;99.90;;;;;;4994287;28;19929;-78
2023/08/04 04:33:10;;;;;;;;;;;15.40;99.90;;;;;;4993319;28;20013;-78
2023/08/04 04:35:36;;;;;;;;;;;15.40;99.90;;;;;;4993810;28;19922;-78
2023/08/04 04:38:02;;;;;;;;;;;15.40;99.90;;;;;;4993318;28;19969;-76
2023/08/04 04:40:27;;;;;;;;;;;15.40;99.90;;;;;;4993145;28;19921;-77
2023/08/04 04:42:53;;;;;;;;;;;15.40;99.90;;;;;;4994144;28;19957;-79
2023/08/04 04:45:18;;;;;;;;;;;15.40;99.90;;;;;;4993331;28;19949;-77
2023/08/04 04:47:44;;;;;;;;;;;15.40;99.90;;;;;;4993514;28;19968;-79
2023/08/04 04:50:09;;;;;;;;;;;15.40;99.90;;;;;;4992995;28;19968;-78
2023/08/04 04:52:36;;;;;;;;;;;15.40;99.90;;;;;;4993591;28;19968;-77
2023/08/04 04:55:02;;;;;;;;;;;15.40;99.90;;;;;;4994668;28;19929;-78
2023/08/04 04:57:28;;;;;;;;;;;15.40;99.90;;;;;;4996616;28;19922;-77
2023/08/04 04:59:54;;;;;;;;;;;15.40;99.90;;;;;;4997575;28;20246;-77
2023/08/04 05:02:19;;;;;;;;;;;15.40;99.90;;;;;;4980633;28;19921;-78
2023/08/04 05:04:45;;;;;;;;;;;15.50;99.90;;;;;;4996738;28;19936;-77
2023/08/04 05:07:10;;;;;;;;;;;15.50;99.90;;;;;;4998142;28;19922;-78
2023/08/04 05:09:37;;;;;;;;;;;15.50;99.90;;;;;;4996813;28;19922;-78
2023/08/04 05:12:03;;;;;;;;;;;15.50;99.90;;;;;;4996706;28;19929;-77
2023/08/04 05:14:28;;;;;;;;;;;15.50;99.90;;;;;;4996880;28;19921;-78
2023/08/04 05:16:54;;;;;;;;;;;15.60;99.90;;;;;;4998317;28;20016;-80
2023/08/04 05:19:19;;;;;;;;;;;15.60;99.90;;;;;;4996370;28;19977;-79
2023/08/04 05:21:45;;;;;;;;;;;15.60;99.90;;;;;;4980733;28;19973;-77
2023/08/04 05:24:11;;;;;;;;;;;15.60;99.90;;;;;;4997440;28;19932;-77
2023/08/04 05:26:37;;;;;;;;;;;15.70;99.90;;;;;;4996409;28;19922;-77
2023/08/04 05:29:03;;;;;;;;;;;15.70;99.90;;;;;;4997436;28;19928;-78
2023/08/04 05:31:28;;;;;;;;;;;15.70;99.90;;;;;;4996743;28;19968;-78
2023/08/04 05:33:56;;;;;;;;;;;15.70;99.90;;;;;;4996484;28;19970;-78
2023/08/04 05:36:22;;;;;;;;;;;15.80;99.90;;;;;;4996655;28;19921;-79
2023/08/04 05:38:48;;;;;;;;;;;15.80;99.90;;;;;;4996720;28;20004;-78
2023/08/04 05:41:13;;;;;;;;;;;15.80;99.90;;;;;;4996681;28;19979;-79
2023/08/04 05:43:39;;;;;;;;;;;15.80;99.90;;;;;;4996604;28;19922;-78
2023/08/04 05:46:05;;;;;;;;;;;15.80;99.90;;;;;;4996532;28;19922;-76
2023/08/04 05:48:32;;;;;;;;;;;15.90;99.90;;;;;;4995927;28;19929;-78
2023/08/04 05:50:57;;;;;;;;;;;15.80;99.90;;;;;;4995637;28;19921;-76
2023/08/04 05:53:23;;;;;;;;;;;15.90;99.90;;;;;;4996619;28;19944;-77
2023/08/04 05:55:48;;;;;;;;;;;15.90;99.90;;;;;;4996093;28;20255;-78
2023/08/04 05:58:14;;;;;;;;;;;15.90;99.90;;;;;;4996400;28;19985;-78
2023/08/04 06:00:40;;;;;;;;;;;15.90;99.90;;;;;;4995625;28;19926;-77
2023/08/04 06:03:05;;;;;;;;;;;15.90;99.90;;;;;;4996885;28;19932;-78
2023/08/04 06:05:31;;;;;;;;;;;16.00;99.90;;;;;;4995779;28;20330;-78
2023/08/04 06:07:56;;;;;;;;;;;16.00;99.90;;;;;;4996175;28;19928;-78
2023/08/04 06:10:22;;;;;;;;;;;16.00;99.90;;;;;;4995997;28;20396;-78
2023/08/04 06:12:48;;;;;;;;;;;16.00;99.90;;;;;;4995449;28;19928;-78
2023/08/04 06:15:14;;;;;;;;;;;16.10;99.90;;;;;;4997052;28;20008;-78
2023/08/04 06:17:40;;;;;;;;;;;16.10;99.90;;;;;;4997250;28;19922;-79
2023/08/04 06:20:07;;;;;;;;;;;16.10;99.90;;;;;;4979808;28;20370;-79
2023/08/04 06:22:32;;;;;;;;;;;16.10;99.90;;;;;;4978962;28;19925;-77
2023/08/04 06:24:58;;;;;;;;;;;16.10;99.90;;;;;;4995460;28;20067;-77
2023/08/04 06:27:27;;;;;;;;;;;16.20;99.90;;;;;;4995606;28;19929;-78
2023/08/04 06:29:52;;;;;;;;;;;16.20;99.90;;;;;;4995397;28;19922;-78
2023/08/04 06:32:18;;;;;;;;;;;16.20;99.90;;;;;;4995435;28;19933;-77
2023/08/04 06:34:43;;;;;;;;;;;16.20;99.90;;;;;;4996177;28;19969;-77
2023/08/04 06:37:09;;;;;;;;;;;16.30;99.90;;;;;;4979197;28;19926;-79
2023/08/04 06:39:34;;;;;;;;;;;16.30;99.90;;;;;;4995713;28;20373;-78
2023/08/04 06:42:00;;;;;;;;;;;16.30;99.90;;;;;;4995262;28;19921;-78
2023/08/04 06:44:25;;;;;;;;;;;16.40;99.90;;;;;;4996500;28;19937;-78
2023/08/04 06:46:51;;;;;;;;;;;16.40;99.90;;;;;;4995324;28;19968;-80
2023/08/04 06:49:16;;;;;;;;;;;16.40;99.90;;;;;;4995627;28;19929;-79
2023/08/04 06:51:42;;;;;;;;;;;16.50;99.90;;;;;;4994898;28;19922;-81
2023/08/04 06:54:07;;;;;;;;;;;16.50;99.90;;;;;;4995952;28;19922;-81
2023/08/04 06:56:35;;;;;;;;;;;16.50;99.90;;;;;;4995134;28;20334;-78
2023/08/04 06:59:01;;;;;;;;;;;16.50;99.90;;;;;;4995934;28;20005;-80
2023/08/04 07:01:27;;;;;;;;;;;16.50;99.90;;;;;;4995327;28;20352;-80
2023/08/04 07:03:53;;;;;;;;;;;16.50;99.90;;;;;;4996343;28;20081;-79
2023/08/04 07:06:18;;;;;;;;;;;16.50;99.90;;;;;;4995027;28;19937;-78
2023/08/04 07:08:44;;;;;;;;;;;16.50;99.90;;;;;;4995853;28;19926;-81
2023/08/04 07:11:13;;;;;;;;;;;16.50;99.90;;;;;;4995210;28;19922;-78
2023/08/04 07:13:39;;;;;;;;;;;16.50;99.90;;;;;;4995073;28;20009;-80
2023/08/04 07:16:04;;;;;;;;;;;16.50;99.90;;;;;;4995554;28;20065;-81
2023/08/04 07:18:30;;;;;;;;;;;16.50;99.90;;;;;;4995368;28;20020;-78
2023/08/04 07:21:03;;;;;;;;;;;16.50;99.90;;;;;;4994285;28;19925;-78
2023/08/04 07:23:28;;;;;;;;;;;16.50;99.90;;;;;;4995755;28;20441;-78
2023/08/04 07:25:57;;;;;;;;;;;16.50;99.90;;;;;;4978675;28;19969;-81
2023/08/04 07:28:22;;;;;;;;;;;16.50;99.90;;;;;;4994622;28;20405;-80
2023/08/04 07:30:48;;;;;;;;;;;16.60;99.90;;;;;;4995486;28;19968;-80
2023/08/04 07:33:13;;;;;;;;;;;16.60;99.90;;;;;;4994586;28;19922;-79
2023/08/04 07:35:39;;;;;;;;;;;16.60;99.90;;;;;;4978737;28;19926;-78
2023/08/04 07:38:05;;;;;;;;;;;16.70;99.90;;;;;;4994863;28;19928;-80
2023/08/04 07:40:30;;;;;;;;;;;16.70;99.90;;;;;;4995904;28;19964;-78
2023/08/04 07:42:56;;;;;;;;;;;16.80;99.90;;;;;;4994848;28;20330;-79
2023/08/04 07:45:21;;;;;;;;;;;16.80;99.90;;;;;;4994652;28;19930;-80
2023/08/04 07:47:47;;;;;;;;;;;16.80;99.90;;;;;;4994931;28;19969;-80
2023/08/04 07:50:12;;;;;;;;;;;16.90;99.90;;;;;;4978339;28;19992;-78
2023/08/04 07:52:38;;;;;;;;;;;17.00;99.90;;;;;;4994423;28;20005;-81
2023/08/04 07:55:04;;;;;;;;;;;17.00;99.90;;;;;;4995735;28;19922;-78
2023/08/04 07:57:29;;;;;;;;;;;17.10;99.90;;;;;;4993956;28;19922;-78
2023/08/04 07:59:55;;;;;;;;;;;17.20;99.90;;;;;;4978473;28;19922;-79
2023/08/04 08:02:20;;;;;;;;;;;17.20;99.90;;;;;;4993432;28;19922;-79
2023/08/04 08:04:46;;;;;;;;;;;17.30;99.90;;;;;;4994921;28;19933;-76
2023/08/04 08:07:21;;;;;;;;;;;17.20;99.90;;;;;;4994843;28;19921;-80
2023/08/04 08:10:10;;;;;;;;;;;;;;;;;;;;;
2023/08/04 08:12:47;;;;;;;;;;;17.00;99.90;;;;;;4992174;28;20034;-82
2023/08/04 08:21:58;;;;;;;;;;;16.50;99.90;;;;;;4895912;29;19977;-81
2023/08/04 08:25:12;;;;;;;;;;;;;;;;;;;;;
2023/08/04 08:57:54;;;;;;;;;;;17.20;99.90;;;;;;5026359;23;20385;-79
2023/08/04 09:01:09;;;;;;;;;;;17.20;99.90;;;;;;4987043;28;19920;-78
2023/08/04 09:07:11;;;;;;;;;;;17.30;99.90;;;;;;5014850;28;19921;-81
2023/08/04 09:09:42;;;;;;;;;;;17.50;99.90;;;;;;4999958;28;19921;-80
2023/08/04 09:19:17;;;;;;;;;;;17.80;99.90;;;;;;4967248;28;19929;-80
2023/08/04 09:21:48;;;;;;;;;;;17.70;99.90;;;;;;4999917;28;20356;-79
2023/08/04 09:28:05;;;;;;;;;;;17.40;99.90;;;;;;5017361;28;20466;-80
2023/08/04 09:33:40;;;;;;;;;;;17.20;99.90;;;;;;4664781;26;19953;-78
2023/08/04 09:40:41;;;;;;;;;;;;;;;;;;;;;
2023/08/04 09:46:43;;;;;;;;;;;;;;;;;;;;;
2023/08/04 09:49:52;;;;;;;;;;;17.40;99.90;;;;;;4890144;29;19930;-79
2023/08/04 09:52:28;;;;;;;;;;;17.60;99.90;;;;;;4893478;29;20383;-79
2023/08/04 09:54:54;;;;;;;;;;;17.80;99.90;;;;;;4921177;29;19945;-76
2023/08/04 09:57:22;;;;;;;;;;;17.90;99.90;;;;;;4943718;28;20293;-77
2023/08/04 09:59:48;;;;;;;;;;;17.90;99.90;;;;;;4983203;28;19964;-79
2023/08/04 10:02:20;;;;;;;;;;;17.90;99.90;;;;;;5016974;28;20243;-78
2023/08/04 10:04:52;;;;;;;;;;;17.90;99.90;;;;;;4999242;28;20278;-79
2023/08/04 10:07:18;;;;;;;;;;;17.90;99.90;;;;;;4983343;28;19972;-79
2023/08/04 10:10:07;;;;;;;;;;;18.10;99.90;;;;;;4982744;28;19921;-78
2023/08/04 10:12:33;;;;;;;;;;;18.30;99.90;;;;;;4998788;28;20361;-78
2023/08/04 10:14:59;;;;;;;;;;;18.40;99.90;;;;;;5016304;28;19928;-79
2023/08/04 10:17:25;;;;;;;;;;;18.50;99.90;;;;;;5016397;28;19922;-77
2023/08/04 10:19:59;;;;;;;;;;;18.40;99.90;;;;;;5016882;28;20254;-77
2023/08/04 10:22:36;;;;;;;;;;;18.40;99.90;;;;;;4981384;28;19921;-79
2023/08/04 10:25:25;;;;;;;;;;;18.40;99.90;;;;;;4936324;29;19927;-78
2023/08/04 10:27:51;;;;;;;;;;;18.40;99.90;;;;;;4903140;29;20028;-78
2023/08/04 10:30:16;;;;;;;;;;;18.30;99.90;;;;;;4937321;29;19923;-78
2023/08/04 10:32:42;;;;;;;;;;;18.20;99.90;;;;;;4936694;29;19923;-78
2023/08/04 10:35:38;;;;;;;;;;;;;;;;;;;;;
2023/08/04 10:38:04;;;;;;;;;;;18.20;99.90;;;;;;4936650;29;19934;-80
2023/08/04 10:40:31;;;;;;;;;;;18.10;99.90;;;;;;4905570;29;20088;-79
2023/08/04 10:43:04;;;;;;;;;;;18.20;99.90;;;;;;4936787;29;19926;-78
2023/08/04 10:46:05;;;;;;;;;;;;;;;;;;;;;
2023/08/04 10:48:34;;;;;;;;;;;18.40;99.90;;;;;;4916644;29;19952;-79
2023/08/04 10:51:00;;;;;;;;;;;18.50;99.90;;;;;;4909379;28;19933;-79
2023/08/04 10:53:26;;;;;;;;;;;18.60;99.90;;;;;;5007497;28;20012;-77
2023/08/04 10:55:52;;;;;;;;;;;18.40;99.90;;;;;;5015677;28;19922;-79
2023/08/04 10:58:18;;;;;;;;;;;18.50;99.90;;;;;;5015562;28;19932;-78
2023/08/04 11:00:44;;;;;;;;;;;18.50;99.90;;;;;;4998236;28;20277;-78
2023/08/04 11:03:42;;;;;;;;;;;18.60;99.90;;;;;;4982063;28;19922;-78
2023/08/04 11:06:14;;;;;;;;;;;18.60;99.90;;;;;;4965838;28;19926;-78
2023/08/04 11:08:41;;;;;;;;;;;18.60;99.90;;;;;;4997620;28;19922;-78
2023/08/04 11:11:07;;;;;;;;;;;18.50;99.90;;;;;;5015153;28;20389;-79
2023/08/04 11:13:32;;;;;;;;;;;18.30;99.90;;;;;;5015140;28;19928;-78
2023/08/04 11:16:01;;;;;;;;;;;18.30;99.90;;;;;;4997563;28;19922;-81
2023/08/04 11:18:31;;;;;;;;;;;18.10;99.90;;;;;;4997766;28;20408;-80
2023/08/04 11:21:06;;;;;;;;;;;18.10;99.90;;;;;;4981165;28;19926;-81
2023/08/04 11:23:58;;;;;;;;;;;18.00;99.90;;;;;;4997662;28;19928;-80
2023/08/04 11:26:23;;;;;;;;;;;17.90;99.90;;;;;;4979217;28;19932;-81
2023/08/04 11:29:28;;;;;;;;;;;;;;;;;;;;;
2023/08/04 11:32:26;;;;;;;;;;;17.80;99.90;;;;;;4997435;28;19925;-82
2023/08/04 11:35:14;;;;;;;;;;;17.80;99.90;;;;;;4982366;28;19985;-79
2023/08/04 11:38:05;;;;;;;;;;;17.90;99.90;;;;;;4967485;28;20284;-79
2023/08/04 11:40:31;;;;;;;;;;;17.90;99.90;;;;;;4997428;28;19921;-77
2023/08/04 11:42:57;;;;;;;;;;;18.10;99.90;;;;;;4997684;28;20015;-77
2023/08/04 11:48:26;;;;;;;;;;;18.50;99.90;;;;;;4955761;28;19925;-80
2023/08/04 11:51:13;;;;;;;;;;;18.70;99.90;;;;;;5016110;28;20488;-79
2023/08/04 11:54:02;;;;;;;;;;;18.80;99.90;;;;;;5013801;28;19929;-80
2023/08/04 11:56:45;;;;;;;;;;;18.80;99.90;;;;;;4994207;28;19928;-79
2023/08/04 11:59:12;;;;;;;;;;;19.00;99.90;;;;;;4997057;28;19929;-80
2023/08/04 12:01:38;;;;;;;;;;;19.20;99.90;;;;;;4980819;28;19974;-78
2023/08/04 12:04:27;;;;;;;;;;;19.40;99.90;;;;;;4980398;28;19980;-75
2023/08/04 12:06:58;;;;;;;;;;;19.50;99.90;;;;;;4938614;29;19945;-79
2023/08/04 12:09:24;;;;;;;;;;;19.50;99.90;;;;;;4954637;29;20270;-79
2023/08/04 12:11:50;;;;;;;;;;;19.40;99.90;;;;;;4953990;29;19922;-79
2023/08/04 12:14:16;;;;;;;;;;;19.30;99.90;;;;;;4937611;29;20446;-79
2023/08/04 12:17:04;;;;;;;;;;;19.30;99.90;;;;;;4922714;29;20294;-79
2023/08/04 12:19:31;;;;;;;;;;;19.20;99.90;;;;;;4953851;29;20267;-77
2023/08/04 12:22:03;;;;;;;;;;;19.40;99.90;;;;;;4953871;29;19926;-76
2023/08/04 12:24:45;;;;;;;;;;;;;;;;;;;;;
2023/08/04 12:27:11;;;;;;;;;;;19.50;99.90;;;;;;4953009;29;19926;-77
2023/08/04 12:29:37;;;;;;;;;;;19.50;99.90;;;;;;4922132;29;19929;-78
2023/08/04 12:32:02;;;;;;;;;;;19.30;99.90;;;;;;4982828;28;19922;-78
2023/08/04 12:34:28;;;;;;;;;;;19.20;99.90;;;;;;5014670;28;19928;-79
2023/08/04 12:36:53;;;;;;;;;;;19.20;99.90;;;;;;5014990;28;20253;-79
2023/08/04 12:39:19;;;;;;;;;;;19.30;99.90;;;;;;5014414;28;20361;-78
2023/08/04 12:41:45;;;;;;;;;;;19.40;99.90;;;;;;4996471;28;20016;-81
2023/08/04 12:44:10;;;;;;;;;;;19.40;99.90;;;;;;5014356;28;20285;-80
2023/08/04 12:46:36;;;;;;;;;;;19.30;99.90;;;;;;5014079;28;19931;-79
2023/08/04 12:49:03;;;;;;;;;;;19.20;99.90;;;;;;4998211;28;19988;-80
2023/08/04 12:51:28;;;;;;;;;;;19.10;99.90;;;;;;5014864;28;19928;-74
2023/08/04 12:53:54;;;;;;;;;;;19.10;99.90;;;;;;5013988;28;20392;-81
2023/08/04 12:56:20;;;;;;;;;;;19.00;99.90;;;;;;4997971;28;19928;-80
2023/08/04 12:58:45;;;;;;;;;;;18.90;99.90;;;;;;5014860;28;19921;-77
2023/08/04 13:01:11;;;;;;;;;;;18.80;99.90;;;;;;5014069;28;19921;-77
2023/08/04 13:03:37;;;;;;;;;;;18.80;99.90;;;;;;4996501;28;20016;-78
2023/08/04 13:06:03;;;;;;;;;;;18.70;99.90;;;;;;4996121;28;19926;-75
2023/08/04 13:08:28;;;;;;;;;;;18.70;99.90;;;;;;5013910;28;20004;-75
2023/08/04 13:10:54;;;;;;;;;;;18.80;99.90;;;;;;4981033;28;20004;-79
2023/08/04 13:13:19;;;;;;;;;;;18.90;99.90;;;;;;4996531;28;19921;-78
2023/08/04 13:15:45;;;;;;;;;;;19.10;99.90;;;;;;4996912;28;20234;-79
2023/08/04 13:18:11;;;;;;;;;;;19.10;99.90;;;;;;5015916;28;20013;-79
2023/08/04 13:20:38;;;;;;;;;;;19.10;99.90;;;;;;5000239;28;19976;-77
2023/08/04 13:23:04;;;;;;;;;;;19.20;99.90;;;;;;5000361;28;19921;-78
2023/08/04 13:25:34;;;;;;;;;;;19.20;99.90;;;;;;4999731;28;20293;-79
2023/08/04 13:27:59;;;;;;;;;;;19.30;99.90;;;;;;5017336;28;20009;-79
2023/08/04 13:30:25;;;;;;;;;;;19.30;99.90;;;;;;4999834;28;20452;-79
2023/08/04 13:32:50;;;;;;;;;;;19.50;99.90;;;;;;5017040;28;19929;-78
2023/08/04 13:35:16;;;;;;;;;;;19.80;99.90;;;;;;5017423;28;20301;-81
2023/08/04 13:37:42;;;;;;;;;;;20.00;99.90;;;;;;5017715;28;20281;-78
2023/08/04 13:40:08;;;;;;;;;;;20.00;99.90;;;;;;5017491;28;19921;-79
2023/08/04 13:42:34;;;;;;;;;;;20.00;99.90;;;;;;5017559;28;19922;-78
2023/08/04 13:45:00;;;;;;;;;;;20.00;99.90;;;;;;5017022;28;19981;-80
2023/08/04 13:47:25;;;;;;;;;;;19.90;99.90;;;;;;5016594;28;20373;-80
2023/08/04 13:49:51;;;;;;;;;;;20.00;99.90;;;;;;5016841;28;20333;-78
2023/08/04 13:52:16;;;;;;;;;;;19.90;99.90;;;;;;5016828;28;19926;-80
2023/08/04 13:54:42;;;;;;;;;;;20.00;99.90;;;;;;5000009;28;19922;-79
2023/08/04 13:57:08;;;;;;;;;;;20.00;99.90;;;;;;5016762;28;19925;-79
2023/08/04 13:59:33;;;;;;;;;;;19.90;99.90;;;;;;4999622;28;19944;-80
2023/08/04 14:01:59;;;;;;;;;;;20.00;99.90;;;;;;5016714;28;19922;-80
2023/08/04 14:04:25;;;;;;;;;;;20.00;99.90;;;;;;5017521;28;19948;-79
2023/08/04 14:06:50;;;;;;;;;;;20.10;99.90;;;;;;4998695;28;19928;-78
2023/08/04 14:09:16;;;;;;;;;;;20.00;99.90;;;;;;5017266;28;19926;-79
2023/08/04 14:11:41;;;;;;;;;;;20.20;99.90;;;;;;5016719;28;20364;-78
2023/08/04 14:14:07;;;;;;;;;;;20.30;99.90;;;;;;5017078;28;19922;-79
2023/08/04 14:16:33;;;;;;;;;;;20.50;99.90;;;;;;4999478;28;20317;-80
2023/08/04 14:18:58;;;;;;;;;;;20.60;99.90;;;;;;5016618;28;19958;-79
2023/08/04 14:21:24;;;;;;;;;;;20.50;99.90;;;;;;4999007;28;19928;-79
2023/08/04 14:23:51;;;;;;;;;;;20.40;99.90;;;;;;4998808;28;19965;-78
2023/08/04 14:26:17;;;;;;;;;;;20.40;99.90;;;;;;5016346;28;20019;-80
2023/08/04 14:28:43;;;;;;;;;;;20.50;99.90;;;;;;4999304;28;19971;-78
2023/08/04 14:31:09;;;;;;;;;;;20.80;99.90;;;;;;4998797;28;19969;-80
2023/08/04 14:33:35;;;;;;;;;;;21.10;99.90;;;;;;5015610;28;20285;-79
2023/08/04 14:36:01;;;;;;;;;;;21.30;99.90;;;;;;5016232;28;19921;-79
2023/08/04 14:38:27;;;;;;;;;;;21.40;99.90;;;;;;5016691;28;20348;-80
2023/08/04 14:40:52;;;;;;;;;;;21.50;99.90;;;;;;5015755;28;19953;-81
2023/08/04 14:43:18;;;;;;;;;;;21.50;99.90;;;;;;5016706;28;20379;-79
2023/08/04 14:45:44;;;;;;;;;;;21.60;99.90;;;;;;4998403;28;19925;-80
2023/08/04 14:48:09;;;;;;;;;;;21.60;99.90;;;;;;4998138;28;20393;-79
2023/08/04 14:50:39;;;;;;;;;;;21.60;99.90;;;;;;5015789;28;19925;-79
2023/08/04 14:53:04;;;;;;;;;;;21.40;99.90;;;;;;5015776;28;19928;-80
2023/08/04 14:55:30;;;;;;;;;;;21.20;99.90;;;;;;5016023;28;20016;-82
2023/08/04 14:57:56;;;;;;;;;;;21.00;99.90;;;;;;5015700;28;19948;-79
2023/08/04 15:00:21;;;;;;;;;;;20.80;99.90;;;;;;5015660;28;19921;-79
2023/08/04 15:02:47;;;;;;;;;;;20.70;99.90;;;;;;5015441;28;19944;-80
2023/08/04 15:05:12;;;;;;;;;;;20.80;99.90;;;;;;5015555;28;19932;-79
2023/08/04 15:07:38;;;;;;;;;;;20.90;99.90;;;;;;5015759;28;19928;-79
2023/08/04 15:10:04;;;;;;;;;;;20.90;99.90;;;;;;4997999;28;20353;-79
2023/08/04 15:12:29;;;;;;;;;;;20.80;99.90;;;;;;5015267;28;19929;-79
2023/08/04 15:14:56;;;;;;;;;;;20.70;99.90;;;;;;4998025;28;19922;-79
2023/08/04 15:17:21;;;;;;;;;;;20.60;99.90;;;;;;5015206;28;19928;-79
2023/08/04 15:19:47;;;;;;;;;;;20.50;99.90;;;;;;5015241;28;19922;-81
2023/08/04 15:22:13;;;;;;;;;;;20.40;99.90;;;;;;4997292;28;20021;-79
2023/08/04 15:24:38;;;;;;;;;;;20.40;99.90;;;;;;5015572;28;19925;-79
2023/08/04 15:27:04;;;;;;;;;;;20.40;99.90;;;;;;4995475;28;19922;-78
2023/08/04 15:29:35;;;;;;;;;;;20.30;99.90;;;;;;5013790;28;20398;-79
2023/08/04 15:32:00;;;;;;;;;;;20.20;99.90;;;;;;5014708;28;19992;-79
2023/08/04 15:34:26;;;;;;;;;;;20.00;99.90;;;;;;4997316;28;19932;-79
2023/08/04 15:36:51;;;;;;;;;;;19.80;99.90;;;;;;4981038;28;19973;-79
2023/08/04 15:39:17;;;;;;;;;;;19.70;99.90;;;;;;4996902;28;19949;-79
2023/08/04 15:41:42;;;;;;;;;;;19.70;99.90;;;;;;4996371;28;19922;-79
2023/08/04 15:44:08;;;;;;;;;;;19.70;99.90;;;;;;4996927;28;19925;-79
2023/08/04 15:46:33;;;;;;;;;;;19.60;99.90;;;;;;4996976;28;19972;-79
2023/08/04 15:48:59;;;;;;;;;;;19.50;99.90;;;;;;4996785;28;19922;-79
2023/08/04 15:51:24;;;;;;;;;;;19.50;99.90;;;;;;4996719;28;19929;-79
2023/08/04 15:53:51;;;;;;;;;;;19.60;99.90;;;;;;4997065;28;19922;-79
2023/08/04 15:56:16;;;;;;;;;;;19.70;99.90;;;;;;4996709;28;19944;-80
2023/08/04 15:58:42;;;;;;;;;;;19.60;99.90;;;;;;4996725;28;19922;-78
2023/08/04 16:01:07;;;;;;;;;;;19.50;99.90;;;;;;4996382;28;20297;-78
2023/08/04 16:03:33;;;;;;;;;;;19.40;99.90;;;;;;4996532;28;19926;-80
2023/08/04 16:05:59;;;;;;;;;;;19.40;99.90;;;;;;4980387;28;19930;-79
2023/08/04 16:08:25;;;;;;;;;;;19.40;99.90;;;;;;4996594;28;19921;-79
2023/08/04 16:10:57;;;;;;;;;;;19.40;99.90;;;;;;4996788;28;19929;-79
2023/08/04 16:13:23;;;;;;;;;;;19.40;99.90;;;;;;4996850;28;19921;-78
2023/08/04 16:16:01;;;;;;;;;;;19.60;99.90;;;;;;4996874;28;19927;-79
2023/08/04 16:18:31;;;;;;;;;;;19.90;99.90;;;;;;4996495;28;20019;-80
2023/08/04 16:20:57;;;;;;;;;;;20.10;99.90;;;;;;4996509;28;19949;-79
2023/08/04 16:23:35;;;;;;;;;;;20.20;99.90;;;;;;4997738;28;19922;-79
2023/08/04 16:26:01;;;;;;;;;;;20.30;99.90;;;;;;4996392;28;19933;-79
2023/08/04 16:28:27;;;;;;;;;;;20.30;99.90;;;;;;4996581;28;19925;-80
2023/08/04 16:30:52;;;;;;;;;;;20.20;99.90;;;;;;4996768;28;19922;-79
2023/08/04 16:33:18;;;;;;;;;;;20.10;99.90;;;;;;4980007;28;19921;-80
2023/08/04 16:35:44;;;;;;;;;;;19.90;99.90;;;;;;5014564;28;19921;-79
2023/08/04 16:38:10;;;;;;;;;;;19.80;99.90;;;;;;5013831;28;19929;-78
2023/08/04 16:40:36;;;;;;;;;;;19.70;99.90;;;;;;4996248;28;19949;-79
2023/08/04 16:43:02;;;;;;;;;;;19.60;99.90;;;;;;4996477;28;19922;-80
2023/08/04 16:45:28;;;;;;;;;;;19.70;99.90;;;;;;4996059;28;19932;-79
2023/08/04 16:47:53;;;;;;;;;;;19.80;99.90;;;;;;5013469;28;20064;-79
2023/08/04 16:50:19;;;;;;;;;;;19.60;99.90;;;;;;4995960;28;20364;-79
2023/08/04 16:52:44;;;;;;;;;;;19.50;99.90;;;;;;4997119;28;19944;-79
2023/08/04 16:55:10;;;;;;;;;;;19.50;99.90;;;;;;4999699;28;19921;-79
2023/08/04 16:57:35;;;;;;;;;;;19.40;99.90;;;;;;4983588;28;19921;-79
2023/08/04 17:00:01;;;;;;;;;;;19.20;99.90;;;;;;5000132;28;19922;-79
2023/08/04 17:02:26;;;;;;;;;;;19.20;99.90;;;;;;4999872;28;19925;-79
2023/08/04 17:04:52;;;;;;;;;;;19.30;99.90;;;;;;4999689;28;20016;-79
2023/08/04 17:07:18;;;;;;;;;;;19.30;99.90;;;;;;4999885;28;20004;-79
2023/08/04 17:09:43;;;;;;;;;;;19.40;99.90;;;;;;5000614;28;20008;-80
2023/08/04 17:12:09;;;;;;;;;;;19.50;99.90;;;;;;4999800;28;19954;-79
2023/08/04 17:14:35;;;;;;;;;;;19.60;99.90;;;;;;4999849;28;19928;-80
2023/08/04 17:17:00;;;;;;;;;;;19.60;99.90;;;;;;5017103;28;20012;-79
2023/08/04 17:19:29;;;;;;;;;;;19.50;99.90;;;;;;4999908;28;20080;-79
2023/08/04 17:21:54;;;;;;;;;;;19.40;99.90;;;;;;4999666;28;19921;-78
2023/08/04 17:24:20;;;;;;;;;;;19.20;99.90;;;;;;4999440;28;20302;-79
2023/08/04 17:26:48;;;;;;;;;;;19.10;99.90;;;;;;4999501;28;19921;-80
2023/08/04 17:29:14;;;;;;;;;;;18.90;99.90;;;;;;4983215;28;19921;-79
2023/08/04 17:31:43;;;;;;;;;;;18.90;99.90;;;;;;4999555;28;19921;-79
2023/08/04 17:34:09;;;;;;;;;;;19.00;99.90;;;;;;4999149;28;19969;-80
2023/08/04 17:36:35;;;;;;;;;;;19.00;99.90;;;;;;4999099;28;20004;-78
2023/08/04 17:39:01;;;;;;;;;;;19.00;99.90;;;;;;5017262;28;20440;-79
2023/08/04 17:41:26;;;;;;;;;;;19.00;99.90;;;;;;4998973;28;20429;-79
2023/08/04 17:43:52;;;;;;;;;;;19.00;99.90;;;;;;5016648;28;19922;-80
2023/08/04 17:46:20;;;;;;;;;;;18.90;99.90;;;;;;4999012;28;19929;-79
2023/08/04 17:48:46;;;;;;;;;;;18.90;99.90;;;;;;4999416;28;20301;-81
2023/08/04 17:51:11;;;;;;;;;;;18.80;99.90;;;;;;4999128;28;19922;-80
2023/08/04 17:53:38;;;;;;;;;;;18.80;99.90;;;;;;4998944;28;19973;-76
2023/08/04 17:56:04;;;;;;;;;;;18.90;99.90;;;;;;5016701;28;19926;-74
2023/08/04 17:58:30;;;;;;;;;;;18.90;99.90;;;;;;4998848;28;20254;-76
2023/08/04 18:00:56;;;;;;;;;;;18.90;99.90;;;;;;4999078;28;19979;-76
2023/08/04 18:03:24;;;;;;;;;;;18.90;99.90;;;;;;4998546;28;20388;-77
2023/08/04 18:05:50;;;;;;;;;;;18.90;99.90;;;;;;4998590;28;19972;-76
2023/08/04 18:08:16;;;;;;;;;;;18.90;99.90;;;;;;4998632;28;20325;-76
2023/08/04 18:10:42;;;;;;;;;;;18.90;99.90;;;;;;4998490;28;19921;-76
2023/08/04 18:13:08;;;;;;;;;;;18.90;99.90;;;;;;4998595;28;19964;-75
2023/08/04 18:15:34;;;;;;;;;;;18.80;99.90;;;;;;4998463;28;20425;-75
2023/08/04 18:18:00;;;;;;;;;;;18.70;99.90;;;;;;4998384;28;20049;-76
2023/08/04 18:20:25;;;;;;;;;;;18.70;99.90;;;;;;4998857;28;19928;-76
2023/08/04 18:22:51;;;;;;;;;;;18.60;99.90;;;;;;5016217;28;19922;-74
2023/08/04 18:25:16;;;;;;;;;;;18.50;99.90;;;;;;5015754;28;19936;-76
2023/08/04 18:27:42;;;;;;;;;;;18.40;99.90;;;;;;4981962;28;19922;-76
2023/08/04 18:30:08;;;;;;;;;;;18.30;99.90;;;;;;4998045;28;19928;-75
2023/08/04 18:32:33;;;;;;;;;;;18.30;99.90;;;;;;4998245;28;19921;-76
2023/08/04 18:34:59;;;;;;;;;;;18.20;99.90;;;;;;4998316;28;20385;-76